createdAt,value
2022-10-19T00:01:15.730Z,12.61
2022-10-19T00:04:17.475Z,12.54
2022-10-19T00:07:19.173Z,12.54
2022-10-19T00:10:20.871Z,12.52
2022-10-19T00:13:22.639Z,12.50
2022-10-19T00:16:26.879Z,12.47
2022-10-19T00:19:29.008Z,12.49
2022-10-19T00:22:30.893Z,12.39
2022-10-19T00:25:32.909Z,12.36
2022-10-19T00:28:35.202Z,12.28
2022-10-19T00:31:37.039Z,12.24
2022-10-19T00:34:38.711Z,12.21
2022-10-19T00:37:40.403Z,12.13
2022-10-19T00:40:42.457Z,12.05
2022-10-19T00:44:01.409Z,12.01
2022-10-19T00:47:07.987Z,11.87
2022-10-19T00:50:11.098Z,11.75
2022-10-19T00:53:12.846Z,11.63
2022-10-19T00:56:15.969Z,11.54
2022-10-19T00:59:20.971Z,11.46
2022-10-19T01:02:22.729Z,11.34
2022-10-19T01:05:25.305Z,11.35
2022-10-19T01:08:28.015Z,11.41
2022-10-19T01:11:51.453Z,11.44
2022-10-19T01:15:27.204Z,11.47
2022-10-19T01:18:40.347Z,11.43
2022-10-19T01:21:50.937Z,11.48
2022-10-19T01:25:10.660Z,11.55
2022-10-19T01:28:25.304Z,11.52
2022-10-19T01:31:51.791Z,11.54
2022-10-19T01:35:19.072Z,11.48
2022-10-19T01:38:23.630Z,11.47
2022-10-19T01:41:40.357Z,11.47
2022-10-19T01:44:58.743Z,11.43
2022-10-19T01:48:23.745Z,11.38
2022-10-19T01:51:35.537Z,11.37
2022-10-19T01:54:44.366Z,11.32
2022-10-19T01:57:52.171Z,11.31
2022-10-19T02:00:57.108Z,11.29
2022-10-19T02:04:00.553Z,11.26
2022-10-19T02:07:04.464Z,11.25
2022-10-19T02:10:07.417Z,11.22
2022-10-19T02:13:10.070Z,11.21
2022-10-19T02:16:21.146Z,11.22
2022-10-19T02:22:25.848Z,11.10
2022-10-19T02:25:27.919Z,11.10
2022-10-19T02:28:30.441Z,11.10
2022-10-19T02:31:32.474Z,11.07
2022-10-19T02:34:35.595Z,11.07
2022-10-19T02:37:37.687Z,11.05
2022-10-19T02:40:45.099Z,11.04
2022-10-19T02:43:51.544Z,11.04
2022-10-19T02:47:08.099Z,11.08
2022-10-19T02:50:11.433Z,11.01
2022-10-19T02:53:13.722Z,10.97
2022-10-19T02:56:15.422Z,10.91
2022-10-19T02:59:17.567Z,10.90
2022-10-19T03:02:21.213Z,10.89
2022-10-19T03:05:22.928Z,10.80
2022-10-19T03:08:24.761Z,10.82
2022-10-19T03:11:26.478Z,10.78
2022-10-19T03:14:28.250Z,10.62
2022-10-19T03:17:29.954Z,10.50
2022-10-19T03:20:31.804Z,10.36
2022-10-19T03:23:33.725Z,10.27
2022-10-19T03:26:35.484Z,10.10
2022-10-19T03:29:37.205Z,9.97
2022-10-19T03:32:39.008Z,9.82
2022-10-19T03:35:40.812Z,9.71
2022-10-19T03:38:42.914Z,9.64
2022-10-19T03:41:45.144Z,9.53
2022-10-19T03:44:46.835Z,9.42
2022-10-19T03:47:52.295Z,9.36
2022-10-19T03:51:21.573Z,9.25
2022-10-19T03:54:26.501Z,9.10
2022-10-19T03:57:29.293Z,9.02
2022-10-19T04:00:30.956Z,8.92
2022-10-19T04:03:32.723Z,8.82
2022-10-19T04:06:37.304Z,8.77
2022-10-19T04:09:39.408Z,8.68
2022-10-19T04:12:41.154Z,8.61
2022-10-19T04:15:42.915Z,8.53
2022-10-19T04:18:44.654Z,8.46
2022-10-19T04:21:48.910Z,8.44
2022-10-19T04:24:50.610Z,8.39
2022-10-19T04:27:52.328Z,8.53
2022-10-19T04:30:54.044Z,8.55
2022-10-19T04:33:56.399Z,8.64
2022-10-19T04:36:59.691Z,8.62
2022-10-19T04:40:01.440Z,8.60
2022-10-19T04:43:04.456Z,8.60
2022-10-19T04:46:13.184Z,8.58
2022-10-19T04:49:17.803Z,8.49
2022-10-19T04:52:21.935Z,8.45
2022-10-19T04:55:23.647Z,8.36
2022-10-19T04:58:25.418Z,8.24
2022-10-19T05:01:29.338Z,8.23
2022-10-19T05:04:31.082Z,8.19
2022-10-19T05:07:33.165Z,8.18
2022-10-19T05:10:36.225Z,8.13
2022-10-19T05:13:38.058Z,8.05
2022-10-19T05:16:39.789Z,7.98
2022-10-19T05:19:41.484Z,7.98
2022-10-19T05:22:46.068Z,8.02
2022-10-19T05:25:47.852Z,8.05
2022-10-19T05:28:51.844Z,8.10
2022-10-19T05:31:53.724Z,8.17
2022-10-19T05:34:55.471Z,8.23
2022-10-19T05:37:57.195Z,8.28
2022-10-19T05:40:58.984Z,8.37
2022-10-19T05:44:02.955Z,8.45
2022-10-19T05:47:04.813Z,8.47
2022-10-19T05:50:06.802Z,8.52
2022-10-19T05:53:08.538Z,8.55
2022-10-19T05:56:15.241Z,8.63
2022-10-19T05:59:20.665Z,8.64
2022-10-19T06:02:22.875Z,8.62
2022-10-19T06:05:24.592Z,8.61
2022-10-19T06:08:26.592Z,8.69
2022-10-19T06:11:30.867Z,8.81
2022-10-19T06:14:32.633Z,8.83
2022-10-19T06:17:34.756Z,8.95
2022-10-19T06:20:38.885Z,9.11
2022-10-19T06:26:47.508Z,9.35
2022-10-19T06:29:49.188Z,9.43
2022-10-19T06:32:51.142Z,9.52
2022-10-19T06:35:53.069Z,9.63
2022-10-19T06:38:56.558Z,9.73
2022-10-19T06:41:58.262Z,9.80
2022-10-19T06:45:00.076Z,9.91
2022-10-19T06:48:04.997Z,9.96
2022-10-19T06:51:09.438Z,10.06
2022-10-19T06:54:11.447Z,10.19
2022-10-19T06:57:13.272Z,10.27
2022-10-19T07:00:15.765Z,10.28
2022-10-19T07:03:17.541Z,10.34
2022-10-19T07:06:19.758Z,10.38
2022-10-19T07:09:22.548Z,10.57
2022-10-19T07:12:24.315Z,10.69
2022-10-19T07:15:26.203Z,10.79
2022-10-19T07:18:28.048Z,10.89
2022-10-19T07:21:29.773Z,10.90
2022-10-19T07:24:31.487Z,11.09
2022-10-19T07:27:37.870Z,11.14
2022-10-19T07:30:39.585Z,11.37
2022-10-19T07:33:41.395Z,11.37
2022-10-19T07:36:46.225Z,11.37
2022-10-19T07:39:48.020Z,11.28
2022-10-19T07:42:49.724Z,11.44
2022-10-19T07:45:58.656Z,11.58
2022-10-19T07:49:00.774Z,11.50
2022-10-19T07:52:02.519Z,11.57
2022-10-19T07:55:04.483Z,11.58
2022-10-19T07:58:06.519Z,11.72
2022-10-19T08:01:11.712Z,11.81
2022-10-19T08:07:36.621Z,11.88
2022-10-19T08:10:38.417Z,11.99
2022-10-19T08:13:40.489Z,11.97
2022-10-19T08:16:44.373Z,11.88
2022-10-19T08:19:47.104Z,11.94
2022-10-19T08:22:48.905Z,11.87
2022-10-19T08:25:50.936Z,11.90
2022-10-19T08:28:52.751Z,12.08
2022-10-19T08:31:54.637Z,12.17
2022-10-19T08:34:56.329Z,12.19
2022-10-19T08:37:58.858Z,12.43
2022-10-19T08:41:08.394Z,12.57
2022-10-19T08:44:10.344Z,12.41
2022-10-19T08:47:37.279Z,12.43
2022-10-19T08:50:44.843Z,12.74
2022-10-19T08:53:56.519Z,12.72
2022-10-19T08:57:46.336Z,12.76
2022-10-19T09:00:59.451Z,12.70
2022-10-19T09:04:08.034Z,13.00
2022-10-19T09:07:21.518Z,12.68
2022-10-19T09:10:51.116Z,12.60
2022-10-19T09:14:06.366Z,12.47
2022-10-19T09:17:14.735Z,12.19
2022-10-19T09:20:29.716Z,12.56
2022-10-19T09:23:40.034Z,12.73
2022-10-19T09:26:57.549Z,12.88
2022-10-19T09:30:03.922Z,13.06
2022-10-19T09:33:06.187Z,13.21
2022-10-19T09:36:10.406Z,13.43
2022-10-19T09:39:14.387Z,13.13
2022-10-19T09:42:30.580Z,13.65
2022-10-19T09:45:35.868Z,13.64
2022-10-19T09:48:53.694Z,13.83
2022-10-19T09:51:55.553Z,13.78
2022-10-19T09:55:06.574Z,14.13
2022-10-19T09:58:14.168Z,14.51
2022-10-19T10:01:43.799Z,14.16
2022-10-19T10:04:47.426Z,14.51
2022-10-19T10:07:54.901Z,14.45
2022-10-19T10:11:07.160Z,14.55
2022-10-19T10:14:20.048Z,14.93
2022-10-19T10:17:28.042Z,14.76
2022-10-19T10:20:32.564Z,14.95
2022-10-19T10:23:36.373Z,15.09
2022-10-19T10:26:44.889Z,15.56
2022-10-19T10:33:13.484Z,15.12
2022-10-19T10:36:27.316Z,14.71
2022-10-19T10:39:29.542Z,14.59
2022-10-19T10:42:36.864Z,14.68
2022-10-19T10:45:48.762Z,14.77
2022-10-19T10:49:03.904Z,14.60
2022-10-19T10:52:18.730Z,14.65
2022-10-19T10:55:20.675Z,14.82
2022-10-19T10:58:51.077Z,15.48
2022-10-19T11:02:04.194Z,15.91
2022-10-19T11:05:12.543Z,15.70
2022-10-19T11:08:45.892Z,15.71
2022-10-19T11:11:49.799Z,14.98
2022-10-19T11:15:01.270Z,14.84
2022-10-19T11:18:19.437Z,14.71
2022-10-19T11:21:33.143Z,14.82
2022-10-19T11:24:59.816Z,14.95
2022-10-19T11:28:16.592Z,14.80
2022-10-19T11:31:36.884Z,14.84
2022-10-19T11:34:53.591Z,14.87
2022-10-19T11:38:17.978Z,14.69
2022-10-19T11:41:21.745Z,14.53
2022-10-19T11:44:46.940Z,14.92
2022-10-19T11:48:01.464Z,15.02
2022-10-19T11:51:21.681Z,15.14
2022-10-19T11:54:34.367Z,15.07
2022-10-19T11:57:47.044Z,15.10
2022-10-19T12:01:02.287Z,15.40
2022-10-19T12:04:36.924Z,15.43
2022-10-19T12:08:07.505Z,15.47
2022-10-19T12:11:18.854Z,15.82
2022-10-19T12:14:26.275Z,15.62
2022-10-19T12:17:33.005Z,15.36
2022-10-19T12:20:56.291Z,15.27
2022-10-19T12:24:01.506Z,14.96
2022-10-19T12:27:05.186Z,15.09
2022-10-19T12:30:13.812Z,15.06
2022-10-19T12:33:25.027Z,15.05
2022-10-19T12:36:42.947Z,15.05
2022-10-19T12:39:53.380Z,14.74
2022-10-19T12:43:13.306Z,14.46
2022-10-19T12:46:42.838Z,14.50
2022-10-19T12:49:48.783Z,14.69
2022-10-19T12:52:54.727Z,14.71
2022-10-19T12:55:59.458Z,14.82
2022-10-19T12:59:02.006Z,14.76
2022-10-19T13:02:20.602Z,14.89
2022-10-19T13:05:24.125Z,14.77
2022-10-19T13:08:32.787Z,14.76
2022-10-19T13:11:36.105Z,14.81
2022-10-19T13:14:54.962Z,14.82
2022-10-19T13:17:56.709Z,14.82
2022-10-19T13:20:59.727Z,14.74
2022-10-19T13:24:24.727Z,14.80
2022-10-19T13:27:28.127Z,14.86
2022-10-19T13:30:35.716Z,14.87
2022-10-19T13:33:48.937Z,14.96
2022-10-19T13:37:18.694Z,14.87
2022-10-19T13:40:24.469Z,14.70
2022-10-19T13:43:26.415Z,14.74
2022-10-19T13:46:30.796Z,14.65
2022-10-19T13:49:51.360Z,14.43
2022-10-19T13:53:42.591Z,14.50
2022-10-19T13:56:56.794Z,14.36
2022-10-19T14:00:01.774Z,14.30
2022-10-19T14:03:31.246Z,14.42
2022-10-19T14:06:44.999Z,14.49
2022-10-19T14:10:05.622Z,14.34
2022-10-19T14:13:14.425Z,14.29
2022-10-19T14:16:21.346Z,14.31
2022-10-19T14:19:30.980Z,14.30
2022-10-19T14:22:34.645Z,14.23
2022-10-19T14:25:37.382Z,14.28
2022-10-19T14:28:40.248Z,14.34
2022-10-19T14:31:41.967Z,14.36
2022-10-19T14:34:46.631Z,14.40
2022-10-19T14:37:49.174Z,14.19
2022-10-19T14:40:51.856Z,14.19
2022-10-19T14:43:57.050Z,14.41
2022-10-19T14:47:01.773Z,14.35
2022-10-19T14:50:04.005Z,14.29
2022-10-19T14:53:43.058Z,14.10
2022-10-19T14:57:05.184Z,13.95
2022-10-19T15:00:15.108Z,13.90
2022-10-19T15:03:28.880Z,13.84
2022-10-19T15:06:35.752Z,13.51
2022-10-19T15:09:48.210Z,13.09
2022-10-19T15:12:52.925Z,12.98
2022-10-19T15:15:55.067Z,12.93
2022-10-19T15:22:14.732Z,12.74
2022-10-19T15:25:36.890Z,12.27
2022-10-19T15:28:41.637Z,11.97
2022-10-19T15:31:43.631Z,11.43
2022-10-19T15:34:46.288Z,11.29
2022-10-19T15:37:49.846Z,11.23
2022-10-19T15:40:59.926Z,11.06
2022-10-19T15:44:04.982Z,10.89
2022-10-19T15:47:19.985Z,10.80
2022-10-19T15:50:36.533Z,10.60
2022-10-19T15:53:38.312Z,10.41
2022-10-19T15:56:40.488Z,10.33
2022-10-19T15:59:42.224Z,10.21
2022-10-19T16:02:44.273Z,10.11
2022-10-19T16:05:47.362Z,10.07
2022-10-19T16:08:51.246Z,10.07
2022-10-19T16:11:56.933Z,10.06
2022-10-19T16:14:58.702Z,9.85
2022-10-19T16:18:00.761Z,9.82
2022-10-19T16:21:02.755Z,9.77
2022-10-19T16:24:04.811Z,9.54
2022-10-19T16:27:07.726Z,9.55
2022-10-19T16:30:10.085Z,9.46
2022-10-19T16:33:11.744Z,9.51
2022-10-19T16:36:13.956Z,9.38
2022-10-19T16:39:15.772Z,9.23
2022-10-19T16:42:17.504Z,9.16
2022-10-19T16:45:19.336Z,8.98
2022-10-19T16:48:24.219Z,8.96
2022-10-19T16:51:40.348Z,8.92
2022-10-19T16:54:42.111Z,8.81
2022-10-19T16:57:43.899Z,8.70
2022-10-19T17:00:45.693Z,8.56
2022-10-19T17:03:48.974Z,8.54
2022-10-19T17:06:50.715Z,8.58
2022-10-19T17:09:54.813Z,8.62
2022-10-19T17:12:56.956Z,8.57
2022-10-19T17:16:03.016Z,8.41
2022-10-19T17:19:07.127Z,8.33
2022-10-19T17:22:09.072Z,8.32
2022-10-19T17:25:10.933Z,8.23
2022-10-19T17:28:12.925Z,8.22
2022-10-19T17:31:15.092Z,8.25
2022-10-19T17:34:17.639Z,8.25
2022-10-19T17:37:19.396Z,8.30
2022-10-19T17:40:21.164Z,8.17
2022-10-19T17:43:22.963Z,7.99
2022-10-19T17:46:27.666Z,7.99
2022-10-19T17:49:30.037Z,7.87
2022-10-19T17:52:31.928Z,7.91
2022-10-19T17:55:37.009Z,7.79
2022-10-19T17:58:39.941Z,7.67
2022-10-19T18:01:42.055Z,7.64
2022-10-19T18:04:43.815Z,7.54
2022-10-19T18:07:45.935Z,7.39
2022-10-19T18:10:47.684Z,7.31
2022-10-19T18:13:50.384Z,7.49
2022-10-19T18:16:52.200Z,7.42
2022-10-19T18:19:54.003Z,7.30
2022-10-19T18:22:55.751Z,7.23
2022-10-19T18:26:04.899Z,7.21
2022-10-19T18:29:12.768Z,7.13
2022-10-19T18:32:16.983Z,6.99
2022-10-19T18:35:18.707Z,6.95
2022-10-19T18:38:20.404Z,6.91
2022-10-19T18:41:23.304Z,6.94
2022-10-19T18:44:33.472Z,6.94
2022-10-19T18:47:35.859Z,6.84
2022-10-19T18:50:37.576Z,6.72
2022-10-19T18:53:39.286Z,6.69
2022-10-19T18:56:41.050Z,6.62
2022-10-19T18:59:42.771Z,6.51
2022-10-19T19:02:46.964Z,6.45
2022-10-19T19:05:48.998Z,6.37
2022-10-19T19:08:53.699Z,6.34
2022-10-19T19:11:58.059Z,6.24
2022-10-19T19:14:59.947Z,6.27
2022-10-19T19:18:01.635Z,6.30
2022-10-19T19:21:12.994Z,6.41
2022-10-19T19:24:18.214Z,6.44
2022-10-19T19:27:27.236Z,6.48
2022-10-19T19:30:32.580Z,6.56
2022-10-19T19:33:35.591Z,6.65
2022-10-19T19:36:38.547Z,6.73
2022-10-19T19:39:40.881Z,6.81
2022-10-19T19:42:42.885Z,6.90
2022-10-19T19:45:44.948Z,6.94
2022-10-19T19:48:48.561Z,7.03
2022-10-19T19:51:51.096Z,7.04
2022-10-19T19:54:53.066Z,7.09
2022-10-19T19:57:55.448Z,7.11
2022-10-19T20:00:57.185Z,7.05
2022-10-19T20:04:00.117Z,7.09
2022-10-19T20:07:02.079Z,7.08
2022-10-19T20:10:03.890Z,7.16
2022-10-19T20:13:05.743Z,7.18
2022-10-19T20:16:09.307Z,7.25
2022-10-19T20:19:13.633Z,7.26
2022-10-19T20:22:15.471Z,7.26
2022-10-19T20:25:17.509Z,7.30
2022-10-19T20:28:19.211Z,7.27
2022-10-19T20:31:21.331Z,7.29
2022-10-19T20:34:24.000Z,7.32
2022-10-19T20:37:26.740Z,7.31
2022-10-19T20:43:32.214Z,7.34
2022-10-19T20:46:34.501Z,7.36
2022-10-19T20:49:36.311Z,7.36
2022-10-19T20:52:38.634Z,7.35
2022-10-19T20:55:40.502Z,7.38
2022-10-19T20:58:43.844Z,7.37
2022-10-19T21:01:48.772Z,7.38
2022-10-19T21:04:50.535Z,7.27
2022-10-19T21:07:52.968Z,7.33
2022-10-19T21:10:54.921Z,7.29
2022-10-19T21:14:02.693Z,7.35
2022-10-19T21:17:04.402Z,7.32
2022-10-19T21:20:06.608Z,7.32
2022-10-19T21:23:08.843Z,7.29
2022-10-19T21:26:10.888Z,7.29
2022-10-19T21:29:14.631Z,7.32
2022-10-19T21:32:18.320Z,7.34
2022-10-19T21:35:19.983Z,7.32
2022-10-19T21:38:21.711Z,7.27
2022-10-19T21:41:26.266Z,7.33
2022-10-19T21:44:28.312Z,7.34
2022-10-19T21:47:29.976Z,7.34
2022-10-19T21:50:31.722Z,7.30
2022-10-19T21:53:33.380Z,7.34
2022-10-19T21:56:36.448Z,7.29
2022-10-19T21:59:38.264Z,7.26
2022-10-19T22:02:39.971Z,7.27
